Time;durP1;ratioP1;P1;durP2;ratioP2;P2;SDS_P1;SDS_P2;PMS_P1;PMS_P2;Temp;Humidity;BMP_temperature;BMP_pressure;BME280_temperature;BME280_humidity;BME280_pressure;Samples;Min_cycle;Max_cycle;Signal;HPM_P1;HPM_P2
2023/10/29 00:00:43;;;;;;;0.45;0.30;;;17.50;71.70;;;;;;5063185;28;20044;-79
2023/10/29 00:03:09;;;;;;;0.65;0.50;;;17.50;71.70;;;;;;5065831;28;20502;-79
2023/10/29 00:05:35;;;;;;;0.68;0.40;;;17.50;71.70;;;;;;5062602;28;20043;-75
2023/10/29 00:08:00;;;;;;;0.60;0.40;;;17.50;71.70;;;;;;5064619;28;20048;-75
2023/10/29 00:10:26;;;;;;;0.50;0.28;;;17.50;71.70;;;;;;5063038;28;20517;-75
2023/10/29 00:12:51;;;;;;;0.50;0.30;;;17.50;71.70;;;;;;5054893;28;20057;-75
2023/10/29 00:15:17;;;;;;;1.20;0.60;;;17.50;71.70;;;;;;5066945;28;20045;-75
2023/10/29 00:17:43;;;;;;;0.40;0.20;;;17.50;71.70;;;;;;5063456;28;20044;-75
2023/10/29 00:20:09;;;;;;;0.25;0.20;;;17.50;71.70;;;;;;5065318;28;20064;-75
2023/10/29 00:22:34;;;;;;;0.68;0.50;;;17.50;71.70;;;;;;5059753;28;20128;-75
2023/10/29 00:25:00;;;;;;;0.55;0.35;;;17.50;71.70;;;;;;5053051;28;20124;-75
2023/10/29 00:27:26;;;;;;;0.30;0.30;;;17.50;71.70;;;;;;5064827;28;20056;-75
2023/10/29 00:29:52;;;;;;;0.47;0.38;;;17.50;71.60;;;;;;5064118;28;20085;-75
2023/10/29 00:32:18;;;;;;;0.60;0.30;;;17.50;71.50;;;;;;5049114;28;20036;-75
2023/10/29 00:34:48;;;;;;;0.55;0.35;;;17.50;71.70;;;;;;5060894;28;20036;-75
2023/10/29 00:37:13;;;;;;;0.90;0.40;;;17.50;71.60;;;;;;5064944;28;20072;-75
2023/10/29 00:39:39;;;;;;;0.50;0.30;;;17.50;71.60;;;;;;5046920;28;20076;-75
2023/10/29 00:42:05;;;;;;;0.63;0.30;;;17.50;71.50;;;;;;5066952;28;20040;-75
2023/10/29 00:44:31;;;;;;;0.45;0.30;;;17.50;71.60;;;;;;5060712;28;20111;-75
2023/10/29 00:46:57;;;;;;;0.52;0.40;;;17.50;71.60;;;;;;5062397;28;20462;-75
2023/10/29 00:49:22;;;;;;;0.40;0.20;;;17.50;71.60;;;;;;5076348;28;20453;-75
2023/10/29 00:51:48;;;;;;;0.65;0.50;;;17.50;71.50;;;;;;5064086;28;20049;-75
2023/10/29 00:54:13;;;;;;;0.47;0.30;;;17.50;71.50;;;;;;5062922;28;20415;-76
2023/10/29 00:56:39;;;;;;;0.43;0.22;;;17.50;71.50;;;;;;5063783;28;20480;-75
2023/10/29 00:59:06;;;;;;;0.90;0.50;;;17.50;71.50;;;;;;5064417;28;20067;-75
2023/10/29 01:01:32;;;;;;;1.23;0.60;;;17.50;71.50;;;;;;5096204;28;20036;-76
2023/10/29 01:03:59;;;;;;;0.60;0.40;;;17.50;71.60;;;;;;5062737;28;20041;-75
2023/10/29 01:06:25;;;;;;;0.35;0.30;;;17.50;71.40;;;;;;5064625;28;20033;-75
2023/10/29 01:08:51;;;;;;;0.30;0.30;;;17.50;71.40;;;;;;5064627;28;20043;-75
2023/10/29 01:11:16;;;;;;;0.65;0.30;;;17.50;71.40;;;;;;5062793;28;20059;-75
2023/10/29 01:13:42;;;;;;;0.47;0.40;;;17.50;71.40;;;;;;5062448;28;20521;-75
2023/10/29 01:16:08;;;;;;;0.50;0.38;;;17.50;71.40;;;;;;5063623;28;20042;-76
2023/10/29 01:18:33;;;;;;;0.47;0.30;;;17.50;71.40;;;;;;5062885;28;20448;-75
2023/10/29 01:20:59;;;;;;;0.40;0.32;;;17.50;71.40;;;;;;5064580;28;20048;-75
2023/10/29 01:23:25;;;;;;;0.70;0.40;;;17.50;71.40;;;;;;5094043;28;20033;-75
2023/10/29 01:25:51;;;;;;;0.55;0.28;;;17.50;71.40;;;;;;5063152;28;20055;-75
2023/10/29 01:28:16;;;;;;;0.60;0.32;;;17.40;71.30;;;;;;5047819;28;20029;-75
2023/10/29 01:30:42;;;;;;;0.52;0.28;;;17.50;71.40;;;;;;5060506;28;20553;-75
2023/10/29 01:33:07;;;;;;;0.40;0.30;;;17.50;71.40;;;;;;5098756;28;20494;-75
2023/10/29 01:35:33;;;;;;;0.70;0.40;;;17.50;71.40;;;;;;5042692;28;20037;-75
2023/10/29 01:37:59;;;;;;;0.32;0.20;;;17.40;71.30;;;;;;5062205;28;20048;-75
2023/10/29 01:40:25;;;;;;;0.63;0.35;;;17.40;71.30;;;;;;5062778;28;20568;-76
2023/10/29 01:42:50;;;;;;;0.38;0.25;;;17.50;71.30;;;;;;5061824;28;20040;-75
2023/10/29 01:45:17;;;;;;;0.63;0.40;;;17.40;71.30;;;;;;5064390;28;20044;-75
2023/10/29 01:47:42;;;;;;;0.40;0.20;;;17.40;71.20;;;;;;5055682;28;20037;-75
2023/10/29 01:50:08;;;;;;;0.50;0.30;;;17.50;71.30;;;;;;5060708;28;20230;-75
2023/10/29 01:52:37;;;;;;;0.38;0.20;;;17.50;71.30;;;;;;5058459;28;20032;-75
2023/10/29 01:55:03;;;;;;;0.40;0.40;;;17.40;71.30;;;;;;5060988;28;20048;-75
2023/10/29 01:57:29;;;;;;;0.30;0.17;;;17.40;71.20;;;;;;5095892;28;20505;-75
2023/10/29 01:59:54;;;;;;;0.55;0.20;;;17.40;71.20;;;;;;5064202;28;20033;-75
2023/10/29 02:02:20;;;;;;;0.50;0.30;;;17.40;71.20;;;;;;5064000;28;20645;-75
2023/10/29 02:04:45;;;;;;;0.95;0.50;;;17.50;71.30;;;;;;5061163;28;20052;-75
2023/10/29 02:07:11;;;;;;;0.52;0.40;;;17.40;71.20;;;;;;5060821;28;20037;-75
2023/10/29 02:09:37;;;;;;;0.75;0.50;;;17.50;71.30;;;;;;5060112;28;20086;-75
2023/10/29 02:12:02;;;;;;;0.50;0.40;;;17.40;71.20;;;;;;5064645;28;20551;-75
2023/10/29 02:14:29;;;;;;;0.40;0.30;;;17.40;71.20;;;;;;5058588;28;20040;-75
2023/10/29 02:16:55;;;;;;;1.08;0.32;;;17.40;71.20;;;;;;5061554;28;20048;-75
2023/10/29 02:19:21;;;;;;;0.52;0.35;;;17.40;71.20;;;;;;5063134;28;20056;-75
2023/10/29 02:21:46;;;;;;;0.40;0.20;;;17.40;71.20;;;;;;5061290;28;20042;-75
2023/10/29 02:24:12;;;;;;;0.60;0.30;;;17.40;71.20;;;;;;5065992;28;20036;-75
2023/10/29 02:26:37;;;;;;;0.75;0.40;;;17.40;70.70;;;;;;5060822;28;20494;-75
2023/10/29 02:29:03;;;;;;;0.30;0.30;;;17.40;72.00;;;;;;5061619;28;20028;-75
2023/10/29 02:31:29;;;;;;;0.20;0.20;;;17.40;71.10;;;;;;5060728;28;20056;-75
2023/10/29 02:33:55;;;;;;;0.22;0.20;;;17.40;71.10;;;;;;5092879;28;20467;-75
2023/10/29 02:36:21;;;;;;;0.70;0.30;;;17.40;71.10;;;;;;5066029;28;20048;-75
2023/10/29 02:38:46;;;;;;;0.47;0.32;;;17.40;72.00;;;;;;5057551;28;20071;-75
2023/10/29 02:41:12;;;;;;;0.70;0.22;;;17.40;71.20;;;;;;5059903;28;20048;-75
2023/10/29 02:43:41;;;;;;;0.25;0.20;;;17.40;71.30;;;;;;5059231;28;20441;-75
2023/10/29 02:46:06;;;;;;;0.15;0.10;;;17.40;71.20;;;;;;5059750;28;20061;-75
2023/10/29 02:48:32;;;;;;;0.28;0.20;;;17.40;71.10;;;;;;5067172;28;20545;-76
2023/10/29 02:50:57;;;;;;;0.70;0.43;;;17.40;71.90;;;;;;5066940;28;20044;-75
2023/10/29 02:53:23;;;;;;;0.30;0.20;;;17.40;71.20;;;;;;5100042;28;20102;-75
2023/10/29 02:55:48;;;;;;;0.52;0.30;;;17.40;71.10;;;;;;5067028;28;20406;-75
2023/10/29 02:58:14;;;;;;;0.17;0.10;;;17.40;71.10;;;;;;5081916;28;20049;-75
2023/10/29 03:00:40;;;;;;;0.50;0.28;;;17.40;71.10;;;;;;5066084;28;20181;-75
2023/10/29 03:03:06;;;;;;;0.40;0.28;;;17.40;71.10;;;;;;5098930;28;20040;-75
2023/10/29 03:05:32;;;;;;;0.60;0.50;;;17.40;71.10;;;;;;5065083;28;20056;-75
2023/10/29 03:07:59;;;;;;;0.50;0.22;;;17.40;71.10;;;;;;5049934;28;20405;-75
2023/10/29 03:10:25;;;;;;;0.73;0.57;;;17.40;71.10;;;;;;5064992;28;20105;-75
2023/10/29 03:12:51;;;;;;;0.45;0.40;;;17.40;71.10;;;;;;5099663;28;20454;-75
2023/10/29 03:15:16;;;;;;;0.60;0.30;;;17.40;71.10;;;;;;5099423;28;20501;-75
2023/10/29 03:17:42;;;;;;;0.20;0.20;;;17.40;71.90;;;;;;5063214;28;20507;-75
2023/10/29 03:20:08;;;;;;;0.57;0.40;;;17.40;71.10;;;;;;5066217;28;20051;-75
2023/10/29 03:22:33;;;;;;;0.25;0.22;;;17.40;71.10;;;;;;5065843;28;20376;-76
2023/10/29 03:24:59;;;;;;;0.52;0.30;;;17.40;71.00;;;;;;5063670;28;20052;-75
2023/10/29 03:27:25;;;;;;;0.30;0.20;;;17.40;71.10;;;;;;5065682;28;20025;-75
2023/10/29 03:29:51;;;;;;;0.60;0.30;;;17.40;71.10;;;;;;5095905;28;20090;-75
2023/10/29 03:32:16;;;;;;;0.35;0.30;;;17.40;71.10;;;;;;5067068;28;20037;-75
2023/10/29 03:34:42;;;;;;;0.30;0.20;;;17.40;71.10;;;;;;5047674;28;20643;-75
2023/10/29 03:37:08;;;;;;;0.30;0.15;;;17.40;71.00;;;;;;5062044;28;20053;-75
2023/10/29 03:39:33;;;;;;;0.10;0.10;;;17.40;71.00;;;;;;5063115;28;20051;-75
2023/10/29 03:41:59;;;;;;;0.25;0.20;;;17.40;71.10;;;;;;5089162;28;20131;-75
2023/10/29 03:44:24;;;;;;;0.40;0.30;;;17.40;71.10;;;;;;5097543;28;20379;-75
2023/10/29 03:46:53;;;;;;;0.47;0.30;;;17.40;71.10;;;;;;5065043;28;20233;-75
2023/10/29 03:49:18;;;;;;;0.65;0.40;;;17.40;71.10;;;;;;5094429;28;20090;-75
2023/10/29 03:51:45;;;;;;;0.30;0.20;;;17.40;71.00;;;;;;5062455;28;20036;-75
2023/10/29 03:54:10;;;;;;;0.52;0.40;;;17.40;71.00;;;;;;5067391;28;20056;-75
2023/10/29 03:56:36;;;;;;;0.73;0.30;;;17.40;71.00;;;;;;5064118;28;20101;-75
2023/10/29 03:59:01;;;;;;;1.20;0.20;;;17.40;71.00;;;;;;5064345;28;20045;-75
2023/10/29 04:01:27;;;;;;;0.68;0.17;;;17.40;71.00;;;;;;5063223;28;20123;-75
2023/10/29 04:03:52;;;;;;;0.17;0.17;;;17.40;71.90;;;;;;5063651;28;20045;-75
2023/10/29 04:06:18;;;;;;;0.38;0.22;;;17.40;71.10;;;;;;5066836;28;20528;-75
2023/10/29 04:08:43;;;;;;;0.30;0.30;;;17.40;71.00;;;;;;5062173;28;20047;-76
2023/10/29 04:11:09;;;;;;;0.25;0.25;;;17.40;71.10;;;;;;5062899;28;20048;-75
2023/10/29 04:13:34;;;;;;;0.70;0.20;;;17.40;71.10;;;;;;5063382;28;20450;-75
2023/10/29 04:16:00;;;;;;;0.57;0.30;;;17.40;71.00;;;;;;5065736;28;20459;-75
2023/10/29 04:18:31;;;;;;;0.20;0.10;;;17.40;71.10;;;;;;5098208;28;20103;-75
2023/10/29 04:20:57;;;;;;;0.57;0.20;;;17.40;71.10;;;;;;5065213;28;20402;-75
2023/10/29 04:23:22;;;;;;;0.43;0.32;;;17.40;71.10;;;;;;5065066;28;20052;-75
2023/10/29 04:25:48;;;;;;;0.40;0.30;;;17.30;71.70;;;;;;5062150;28;20033;-75
2023/10/29 04:28:14;;;;;;;0.50;0.30;;;17.40;71.00;;;;;;5065350;28;20032;-75
2023/10/29 04:30:39;;;;;;;0.20;0.20;;;17.40;71.80;;;;;;5065556;28;20116;-75
2023/10/29 04:33:05;;;;;;;0.57;0.30;;;17.40;71.00;;;;;;5066417;28;20045;-75
2023/10/29 04:35:30;;;;;;;0.30;0.30;;;17.30;70.90;;;;;;5062573;28;20426;-75
2023/10/29 04:37:56;;;;;;;0.20;0.20;;;17.30;71.70;;;;;;5061021;28;20101;-75
2023/10/29 04:40:22;;;;;;;0.32;0.20;;;17.40;71.00;;;;;;5063208;28;20047;-75
2023/10/29 04:42:47;;;;;;;0.45;0.45;;;17.30;71.00;;;;;;5047344;28;20063;-75
2023/10/29 04:45:13;;;;;;;0.43;0.28;;;17.30;71.00;;;;;;5067238;28;20491;-75
2023/10/29 04:47:39;;;;;;;0.40;0.30;;;17.40;71.00;;;;;;5060883;28;20086;-75
2023/10/29 04:50:05;;;;;;;0.22;0.22;;;17.30;70.90;;;;;;5061574;28;20037;-75
2023/10/29 04:52:31;;;;;;;0.38;0.38;;;17.30;70.90;;;;;;5061419;28;20052;-75
2023/10/29 04:54:57;;;;;;;0.40;0.30;;;17.30;70.90;;;;;;5060447;28;20041;-75
2023/10/29 04:57:22;;;;;;;0.22;0.10;;;17.30;71.00;;;;;;5065244;28;20513;-75
2023/10/29 04:59:52;;;;;;;0.55;0.30;;;17.40;71.00;;;;;;5065379;28;20168;-75
2023/10/29 05:02:17;;;;;;;0.30;0.30;;;17.30;70.90;;;;;;5061330;28;20035;-75
2023/10/29 05:04:43;;;;;;;0.70;0.20;;;17.30;71.00;;;;;;5062910;28;20033;-75
2023/10/29 05:07:08;;;;;;;0.30;0.30;;;17.30;70.90;;;;;;5063614;28;20041;-75
2023/10/29 05:09:35;;;;;;;0.20;0.20;;;17.30;71.00;;;;;;5064348;28;20033;-75
2023/10/29 05:12:01;;;;;;;0.40;0.40;;;17.30;71.00;;;;;;5064462;28;20521;-75
2023/10/29 05:14:26;;;;;;;0.63;0.32;;;17.30;71.10;;;;;;5062852;28;20040;-75
2023/10/29 05:16:52;;;;;;;0.30;0.30;;;17.30;71.10;;;;;;5059397;28;20167;-75
2023/10/29 05:19:18;;;;;;;0.45;0.30;;;17.30;70.90;;;;;;5080975;28;20037;-75
2023/10/29 05:21:44;;;;;;;0.65;0.30;;;17.30;70.90;;;;;;5062134;28;20053;-75
2023/10/29 05:24:09;;;;;;;0.50;0.20;;;17.30;70.90;;;;;;5049155;28;20040;-75
2023/10/29 05:26:36;;;;;;;0.32;0.28;;;17.30;71.00;;;;;;5062975;28;20047;-75
2023/10/29 05:29:05;;;;;;;0.30;0.30;;;17.30;70.90;;;;;;5062897;28;20528;-75
2023/10/29 05:31:31;;;;;;;0.77;0.32;;;17.30;71.00;;;;;;5060014;28;20120;-75
2023/10/29 05:33:57;;;;;;;0.20;0.15;;;17.30;71.70;;;;;;5059445;28;20091;-75
2023/10/29 05:36:22;;;;;;;0.25;0.20;;;17.30;71.00;;;;;;5064013;28;20079;-75
2023/10/29 05:38:48;;;;;;;0.50;0.32;;;17.30;71.00;;;;;;5060818;28;20143;-75
2023/10/29 05:41:14;;;;;;;0.40;0.30;;;17.30;71.00;;;;;;5061565;28;20041;-75
2023/10/29 05:43:39;;;;;;;0.52;0.20;;;17.30;71.10;;;;;;5061459;28;20441;-75
2023/10/29 05:46:05;;;;;;;0.30;0.28;;;17.30;71.00;;;;;;5062029;28;20090;-75
2023/10/29 05:48:31;;;;;;;0.28;0.20;;;17.30;71.00;;;;;;5062554;28;20041;-75
2023/10/29 05:50:56;;;;;;;0.45;0.20;;;17.30;71.00;;;;;;5062891;28;20502;-75
2023/10/29 05:53:22;;;;;;;0.30;0.20;;;17.30;71.00;;;;;;5061419;28;20045;-75
2023/10/29 05:55:47;;;;;;;0.32;0.20;;;17.30;71.00;;;;;;5059243;28;20541;-75
2023/10/29 05:58:13;;;;;;;0.10;0.10;;;17.30;71.10;;;;;;5062264;28;20127;-75
2023/10/29 06:00:38;;;;;;;0.40;0.20;;;17.30;71.00;;;;;;5094671;28;20501;-75
2023/10/29 06:03:04;;;;;;;0.70;0.32;;;17.30;71.10;;;;;;5064213;28;20510;-75
2023/10/29 06:05:29;;;;;;;0.40;0.22;;;17.20;71.00;;;;;;5061495;28;20058;-75
2023/10/29 06:07:56;;;;;;;0.20;0.20;;;17.30;71.00;;;;;;5060386;28;20032;-75
2023/10/29 06:10:21;;;;;;;0.28;0.20;;;17.20;71.00;;;;;;5061012;28;20647;-75
2023/10/29 06:12:47;;;;;;;0.70;0.30;;;17.30;71.00;;;;;;5059959;28;20053;-75
2023/10/29 06:15:13;;;;;;;0.38;0.28;;;17.30;71.10;;;;;;5064728;28;20038;-75
2023/10/29 06:17:38;;;;;;;0.28;0.25;;;17.30;71.00;;;;;;5060248;28;20071;-75
2023/10/29 06:20:05;;;;;;;0.82;0.47;;;17.30;71.00;;;;;;5059312;28;20418;-75
2023/10/29 06:22:31;;;;;;;0.40;0.30;;;17.30;71.10;;;;;;5060576;28;20049;-75
2023/10/29 06:24:56;;;;;;;0.28;0.28;;;17.30;71.00;;;;;;5060929;28;20116;-75
2023/10/29 06:27:22;;;;;;;0.50;0.40;;;17.30;70.90;;;;;;5064511;28;20143;-75
2023/10/29 06:29:48;;;;;;;0.35;0.10;;;17.30;71.00;;;;;;5059973;28;20094;-75
2023/10/29 06:32:13;;;;;;;0.45;0.30;;;17.30;71.00;;;;;;5063108;28;20065;-75
2023/10/29 06:34:39;;;;;;;0.13;0.10;;;17.30;71.00;;;;;;5060473;28;20033;-75
2023/10/29 06:37:04;;;;;;;0.25;0.25;;;17.30;71.00;;;;;;5091779;28;20441;-75
2023/10/29 06:39:31;;;;;;;0.30;0.30;;;17.30;71.00;;;;;;5063043;28;20086;-75
2023/10/29 06:41:56;;;;;;;0.80;0.40;;;17.30;71.00;;;;;;5059248;28;20054;-75
2023/10/29 06:44:22;;;;;;;0.20;0.20;;;17.30;71.00;;;;;;5062901;28;20033;-75
2023/10/29 06:46:48;;;;;;;0.20;0.10;;;17.30;71.00;;;;;;5056214;28;20056;-75
2023/10/29 06:49:13;;;;;;;0.20;0.10;;;17.30;70.90;;;;;;5062063;28;20048;-75
2023/10/29 06:51:39;;;;;;;0.30;0.20;;;17.30;71.00;;;;;;5062740;28;20490;-75
2023/10/29 06:54:05;;;;;;;0.55;0.20;;;17.30;71.00;;;;;;5062994;28;20052;-75
2023/10/29 06:56:30;;;;;;;0.20;0.20;;;17.30;70.90;;;;;;5061093;28;20468;-75
2023/10/29 06:58:56;;;;;;;0.30;0.30;;;17.30;71.00;;;;;;5058927;28;20123;-75
2023/10/29 07:01:22;;;;;;;0.22;0.22;;;17.30;71.00;;;;;;5061121;28;20410;-75
2023/10/29 07:03:47;;;;;;;0.22;0.10;;;17.30;70.90;;;;;;5059069;28;20473;-75
2023/10/29 07:06:16;;;;;;;0.60;0.25;;;17.30;70.90;;;;;;5062815;28;20041;-75
2023/10/29 07:08:41;;;;;;;0.30;0.30;;;17.30;71.00;;;;;;5059361;28;20102;-75
2023/10/29 07:11:07;;;;;;;0.30;0.20;;;17.30;71.00;;;;;;5059642;28;20045;-75
2023/10/29 07:13:32;;;;;;;0.30;0.17;;;17.30;71.00;;;;;;5059574;28;20066;-75
2023/10/29 07:16:02;;;;;;;0.20;0.20;;;17.30;71.00;;;;;;5060779;28;20041;-75
2023/10/29 07:18:28;;;;;;;1.00;0.30;;;17.30;71.00;;;;;;5062237;28;20063;-75
2023/10/29 07:20:54;;;;;;;0.35;0.20;;;17.30;71.10;;;;;;5061218;28;20108;-75
2023/10/29 07:23:20;;;;;;;0.20;0.20;;;17.30;71.00;;;;;;5059917;28;20463;-75
2023/10/29 07:25:47;;;;;;;0.30;0.28;;;17.30;71.10;;;;;;5058240;28;20069;-75
2023/10/29 07:28:13;;;;;;;0.40;0.30;;;17.30;71.10;;;;;;5062564;28;20043;-75
2023/10/29 07:30:39;;;;;;;0.28;0.13;;;17.30;71.90;;;;;;5064662;28;20055;-75
2023/10/29 07:33:04;;;;;;;0.17;0.17;;;17.30;71.00;;;;;;5065052;28;20471;-75
2023/10/29 07:35:30;;;;;;;0.13;0.13;;;17.30;71.10;;;;;;5064029;28;20043;-75
2023/10/29 07:37:55;;;;;;;0.40;0.25;;;17.30;71.10;;;;;;5064139;28;20430;-75
2023/10/29 07:40:21;;;;;;;0.25;0.20;;;17.30;71.10;;;;;;5066866;28;20067;-75
2023/10/29 07:42:47;;;;;;;0.20;0.20;;;17.30;71.10;;;;;;5064777;28;20068;-75
2023/10/29 07:45:12;;;;;;;0.10;0.00;;;17.20;71.10;;;;;;5067416;28;20039;-75
2023/10/29 07:47:38;;;;;;;0.57;0.30;;;17.30;71.20;;;;;;5065606;28;20025;-75
2023/10/29 07:50:04;;;;;;;0.10;0.10;;;17.30;71.10;;;;;;5062179;28;20082;-75
2023/10/29 07:52:30;;;;;;;0.50;0.20;;;17.30;71.00;;;;;;5066027;28;20052;-75
2023/10/29 07:54:55;;;;;;;0.20;0.10;;;17.30;71.00;;;;;;5057859;28;20037;-75
2023/10/29 07:57:21;;;;;;;0.30;0.28;;;17.30;71.00;;;;;;5065835;28;20044;-75
2023/10/29 07:59:46;;;;;;;0.20;0.20;;;17.30;71.70;;;;;;5065000;28;20068;-75
2023/10/29 08:02:12;;;;;;;0.30;0.20;;;17.30;70.90;;;;;;5064930;28;20033;-75
2023/10/29 08:04:37;;;;;;;0.20;0.20;;;17.30;70.90;;;;;;5060336;28;20398;-75
2023/10/29 08:07:04;;;;;;;0.57;0.15;;;17.30;70.90;;;;;;5065956;28;20089;-75
2023/10/29 08:09:29;;;;;;;0.22;0.20;;;17.30;70.90;;;;;;5065839;28;20443;-75
2023/10/29 08:11:55;;;;;;;0.50;0.30;;;17.30;70.90;;;;;;5062783;28;20032;-75
2023/10/29 08:14:20;;;;;;;0.30;0.10;;;17.30;70.90;;;;;;5062725;28;20545;-75
2023/10/29 08:16:46;;;;;;;0.20;0.20;;;17.30;70.90;;;;;;5061850;28;20056;-75
2023/10/29 08:19:11;;;;;;;0.10;0.10;;;17.30;70.80;;;;;;5063688;28;20129;-75
2023/10/29 08:21:37;;;;;;;0.20;0.20;;;17.30;70.80;;;;;;5064715;28;20045;-75
2023/10/29 08:24:04;;;;;;;0.30;0.20;;;17.30;70.70;;;;;;5063761;28;20207;-75
2023/10/29 08:26:31;;;;;;;0.50;0.20;;;17.30;70.90;;;;;;5065599;28;20136;-75
2023/10/29 08:28:57;;;;;;;0.15;0.10;;;17.30;70.70;;;;;;5063696;28;20106;-75
2023/10/29 08:31:23;;;;;;;0.30;0.20;;;17.30;70.70;;;;;;5065011;28;20029;-75
2023/10/29 08:33:49;;;;;;;0.20;0.10;;;17.30;70.80;;;;;;5062673;28;20053;-75
2023/10/29 08:36:18;;;;;;;0.30;0.10;;;17.30;70.80;;;;;;5097673;28;20045;-75
2023/10/29 08:38:43;;;;;;;0.10;0.10;;;17.30;70.90;;;;;;5094539;28;20060;-75
2023/10/29 08:41:16;;;;;;;0.25;0.20;;;17.30;70.80;;;;;;5061378;28;20041;-75
2023/10/29 08:43:41;;;;;;;0.20;0.20;;;17.30;70.90;;;;;;5061772;28;20127;-75
2023/10/29 08:46:07;;;;;;;0.10;0.10;;;17.30;70.90;;;;;;5064842;28;20116;-75
2023/10/29 08:48:33;;;;;;;0.10;0.10;;;17.30;70.90;;;;;;5064797;28;20469;-75
2023/10/29 08:50:58;;;;;;;0.17;0.10;;;17.30;70.80;;;;;;5065571;28;20051;-75
2023/10/29 08:53:24;;;;;;;0.77;0.10;;;17.30;71.00;;;;;;5060998;28;20044;-75
2023/10/29 08:55:51;;;;;;;0.20;0.13;;;17.30;70.90;;;;;;5062356;28;20047;-75
2023/10/29 08:58:17;;;;;;;0.20;0.15;;;17.30;70.80;;;;;;5061355;28;20052;-75
2023/10/29 09:00:43;;;;;;;0.10;0.10;;;17.30;70.90;;;;;;5062997;28;20055;-75
2023/10/29 09:03:08;;;;;;;0.10;0.10;;;17.30;70.90;;;;;;5063675;28;20045;-75
2023/10/29 09:05:34;;;;;;;0.50;0.20;;;17.30;70.90;;;;;;5062756;28;20032;-74
2023/10/29 09:07:59;;;;;;;0.10;0.10;;;17.30;70.90;;;;;;5062183;28;20562;-75
2023/10/29 09:10:25;;;;;;;0.10;0.10;;;17.30;70.90;;;;;;5064550;28;20506;-75
2023/10/29 09:12:51;;;;;;;0.35;0.10;;;17.30;70.90;;;;;;5059860;28;20514;-75
2023/10/29 09:15:17;;;;;;;0.28;0.22;;;17.30;71.00;;;;;;5065331;28;20041;-75
2023/10/29 09:17:43;;;;;;;0.17;0.10;;;17.30;70.90;;;;;;5061534;28;20478;-74
2023/10/29 09:20:09;;;;;;;0.20;0.20;;;17.40;71.00;;;;;;5065587;28;20037;-74
2023/10/29 09:22:34;;;;;;;0.15;0.15;;;17.40;71.00;;;;;;5060895;28;20540;-75
2023/10/29 09:25:00;;;;;;;0.20;0.17;;;17.30;70.90;;;;;;5063387;28;20036;-75
2023/10/29 09:27:26;;;;;;;0.10;0.10;;;17.30;70.90;;;;;;5065413;28;20029;-74
2023/10/29 09:29:51;;;;;;;0.17;0.17;;;17.40;70.90;;;;;;5060914;28;20057;-75
2023/10/29 09:32:17;;;;;;;0.10;0.00;;;17.30;70.90;;;;;;5062765;28;20102;-75
2023/10/29 09:34:42;;;;;;;0.13;0.10;;;17.30;70.90;;;;;;5062945;28;20094;-75
2023/10/29 09:37:08;;;;;;;0.10;0.10;;;17.30;70.90;;;;;;5060332;28;20041;-75
2023/10/29 09:39:34;;;;;;;0.40;0.13;;;17.40;71.00;;;;;;5062142;28;20032;-75
2023/10/29 09:42:08;;;;;;;0.10;0.10;;;17.40;70.80;;;;;;5064927;28;20039;-75
2023/10/29 09:44:33;;;;;;;;;;;17.40;70.80;;;;;;5061541;28;20050;-75
2023/10/29 09:47:03;;;;;;;0.10;0.10;;;17.40;71.00;;;;;;5060479;28;19913;-75
2023/10/29 09:49:28;;;;;;;0.10;0.10;;;17.40;71.10;;;;;;5044694;28;20040;-75
2023/10/29 09:51:54;;;;;;;0.10;0.10;;;17.50;70.90;;;;;;5093119;28;20052;-75
2023/10/29 09:54:20;;;;;;;0.10;0.10;;;17.40;70.80;;;;;;5064183;28;20048;-75
2023/10/29 09:56:45;;;;;;;0.20;0.10;;;17.50;70.90;;;;;;5059458;28;20506;-75
2023/10/29 09:59:11;;;;;;;0.30;0.15;;;17.50;70.90;;;;;;5055457;28;20041;-75
2023/10/29 10:01:36;;;;;;;0.20;0.13;;;17.50;70.50;;;;;;5047926;28;20041;-75
2023/10/29 10:04:02;;;;;;;0.22;0.10;;;17.50;70.50;;;;;;5061780;28;20040;-75
2023/10/29 10:06:28;;;;;;;0.10;0.10;;;17.50;70.60;;;;;;5060076;28;20127;-75
2023/10/29 10:08:59;;;;;;;0.10;0.10;;;17.50;70.70;;;;;;5063739;28;20036;-75
2023/10/29 10:11:25;;;;;;;0.13;0.10;;;17.50;70.80;;;;;;5092957;28;20037;-75
2023/10/29 10:13:50;;;;;;;0.10;0.10;;;17.60;70.70;;;;;;5061897;28;20086;-75
2023/10/29 10:16:16;;;;;;;0.10;0.10;;;17.60;71.50;;;;;;5060486;28;20186;-75
2023/10/29 10:18:55;;;;;;;0.22;0.20;;;17.60;70.70;;;;;;5061750;28;20132;-75
2023/10/29 10:21:23;;;;;;;0.73;0.15;;;17.60;70.70;;;;;;5055535;28;20044;-75
2023/10/29 10:23:50;;;;;;;0.45;0.30;;;17.60;70.90;;;;;;5061941;28;20139;-74
2023/10/29 10:26:18;;;;;;;0.10;0.10;;;17.60;70.80;;;;;;5058844;28;20101;-75
2023/10/29 10:28:54;;;;;;;0.10;0.10;;;17.60;70.70;;;;;;5043125;28;20145;-75
2023/10/29 10:31:20;;;;;;;0.32;0.20;;;17.60;70.70;;;;;;5093697;28;20103;-75
2023/10/29 10:33:45;;;;;;;0.10;0.10;;;17.60;70.70;;;;;;5062808;28;20608;-75
2023/10/29 10:36:11;;;;;;;0.20;0.17;;;17.60;70.70;;;;;;5064716;28;20044;-75
2023/10/29 10:38:51;;;;;;;0.10;0.10;;;17.60;70.80;;;;;;5060897;28;20041;-75
2023/10/29 10:41:17;;;;;;;0.20;0.20;;;17.60;70.80;;;;;;5060388;28;20048;-75
2023/10/29 10:43:43;;;;;;;0.30;0.20;;;17.70;70.70;;;;;;5092881;28;20078;-75
2023/10/29 10:46:09;;;;;;;0.35;0.20;;;17.70;70.70;;;;;;5058682;28;20131;-75
2023/10/29 10:48:37;;;;;;;0.15;0.13;;;17.60;70.90;;;;;;5061417;28;20040;-75
2023/10/29 10:51:04;;;;;;;0.10;0.10;;;17.70;71.00;;;;;;5061221;28;20044;-75
2023/10/29 10:53:29;;;;;;;0.10;0.10;;;17.70;70.80;;;;;;5060015;28;20041;-75
2023/10/29 10:55:55;;;;;;;0.30;0.20;;;17.70;70.90;;;;;;5062228;28;20040;-75
2023/10/29 10:58:20;;;;;;;0.10;0.10;;;17.70;70.70;;;;;;5078869;28;20040;-75
2023/10/29 11:00:47;;;;;;;0.20;0.10;;;17.70;70.70;;;;;;5061196;28;20090;-75
2023/10/29 11:03:12;;;;;;;0.70;0.17;;;17.70;70.80;;;;;;5062056;28;20182;-75
2023/10/29 11:05:38;;;;;;;0.10;0.10;;;17.70;70.70;;;;;;5061065;28;20567;-75
2023/10/29 11:08:03;;;;;;;0.20;0.20;;;17.70;70.70;;;;;;5062503;28;20032;-75
2023/10/29 11:10:29;;;;;;;0.10;0.10;;;17.70;70.70;;;;;;5064394;28;20036;-75
2023/10/29 11:12:55;;;;;;;0.08;0.08;;;17.70;70.70;;;;;;5064604;28;20376;-75
2023/10/29 11:15:22;;;;;;;0.30;0.10;;;17.70;70.70;;;;;;5066750;28;20494;-75
2023/10/29 11:18:00;;;;;;;0.10;0.10;;;17.70;70.70;;;;;;5065097;28;20221;-75
2023/10/29 11:20:49;;;;;;;0.40;0.20;;;17.80;70.80;;;;;;5049336;28;20023;-75
2023/10/29 11:23:28;;;;;;;0.88;0.35;;;17.80;70.70;;;;;;5060862;28;20085;-75
2023/10/29 11:26:21;;;;;;;0.28;0.10;;;17.80;70.70;;;;;;5065759;28;20494;-75
2023/10/29 11:28:52;;;;;;;0.10;0.10;;;17.80;70.70;;;;;;5058469;28;20047;-75
2023/10/29 11:31:19;;;;;;;0.35;0.10;;;17.80;70.70;;;;;;5049601;28;20132;-75
2023/10/29 11:33:46;;;;;;;0.10;0.10;;;17.80;70.60;;;;;;5064416;28;27956;-75
2023/10/29 11:36:32;;;;;;;0.10;0.10;;;17.80;70.50;;;;;;5064986;28;20127;-75
2023/10/29 11:39:18;;;;;;;0.38;0.35;;;17.80;70.50;;;;;;5066561;28;20506;-76
2023/10/29 11:41:46;;;;;;;0.43;0.10;;;17.80;70.50;;;;;;5063220;28;20048;-75
2023/10/29 11:44:18;;;;;;;0.20;0.20;;;17.80;70.50;;;;;;5062431;28;20120;-75
2023/10/29 11:46:59;;;;;;;0.20;0.10;;;17.90;70.60;;;;;;5063185;28;20047;-75
2023/10/29 11:49:28;;;;;;;0.10;0.10;;;17.80;70.50;;;;;;5063769;28;20039;-75
2023/10/29 11:51:54;;;;;;;0.45;0.20;;;17.80;70.50;;;;;;5064945;28;20037;-75
2023/10/29 11:54:20;;;;;;;0.22;0.10;;;17.90;70.60;;;;;;5059900;28;20053;-75
2023/10/29 11:56:46;;;;;;;0.10;0.10;;;17.90;70.60;;;;;;5064701;28;20041;-75
2023/10/29 11:59:11;;;;;;;0.13;0.13;;;17.80;70.60;;;;;;5048546;28;20048;-75
2023/10/29 12:01:38;;;;;;;0.20;0.10;;;17.80;70.60;;;;;;5093597;28;20510;-75
2023/10/29 12:04:04;;;;;;;0.25;0.08;;;17.80;71.40;;;;;;5093605;28;20131;-75
2023/10/29 12:06:43;;;;;;;0.30;0.20;;;17.80;70.60;;;;;;5066822;28;20456;-75
2023/10/29 12:09:21;;;;;;;0.20;0.10;;;17.80;70.70;;;;;;5062914;28;20060;-75
2023/10/29 12:11:54;;;;;;;0.08;0.05;;;17.80;70.80;;;;;;5061839;28;20047;-75
2023/10/29 12:14:46;;;;;;;0.35;0.20;;;17.80;70.80;;;;;;5061103;28;20048;-75
2023/10/29 12:17:13;;;;;;;0.10;0.10;;;17.80;70.80;;;;;;5048717;28;20044;-75
2023/10/29 12:19:45;;;;;;;0.38;0.22;;;17.80;70.70;;;;;;5047875;28;20390;-75
2023/10/29 12:22:21;;;;;;;0.38;0.20;;;17.80;70.70;;;;;;5062820;28;20040;-75
2023/10/29 12:24:53;;;;;;;0.10;0.08;;;17.80;70.70;;;;;;5094839;28;20049;-75
2023/10/29 12:27:21;;;;;;;0.17;0.10;;;17.80;70.70;;;;;;5078871;28;20040;-75
2023/10/29 12:29:47;;;;;;;0.25;0.10;;;17.80;70.70;;;;;;5062966;28;20482;-75
2023/10/29 12:32:23;;;;;;;0.45;0.17;;;17.80;70.70;;;;;;5057971;28;20091;-75
2023/10/29 12:34:52;;;;;;;0.10;0.10;;;17.90;70.80;;;;;;5059478;28;20044;-75
2023/10/29 12:37:23;;;;;;;0.38;0.30;;;17.90;70.60;;;;;;5058926;28;20505;-75
2023/10/29 12:39:51;;;;;;;0.10;0.10;;;17.90;70.50;;;;;;5064467;28;20040;-75
2023/10/29 12:42:18;;;;;;;0.20;0.20;;;17.90;70.60;;;;;;5065302;28;20510;-75
2023/10/29 12:44:55;;;;;;;0.57;0.28;;;17.90;70.70;;;;;;5062900;28;20025;-75